Flugplatz Hamburg

Bericht für EDDH

vom 24.02. um 01:20 UTC

Wind 3 kt aus 90°

Sichtweite 10 km oder mehr

aufgebrochene Bewölkung in 2300 ft

Temperatur -3.0°C

Taupunkt -7.0°C

Luftfeuchtigkeit 74%

Luftdruck 1029 hPa

keine wesentliche Wetteränderung innerhalb den nächsten 2 Stunden zu erwarten

EDDH 240120Z 09003KT 9999 BKN023 M03/M07 Q1029 NOSIG

Prognose für EDDH

vom 23.02. um 23:00 UTC

Zwischen 00:00 UTC und 09:00 UTC

Wind 6 kt aus 60°

Sichtweite 10 km oder mehr

aufgebrochene Bewölkung in 2000 ft


Zwischen 04:00 UTC und 08:00 UTC zeitweise mit einer Wahrscheinlichkeit von 30%

Sichtweite 4500 m

schwacher Schnee

aufgebrochene Bewölkung in 1200 ft


Zwischen 09:00 UTC und 16:00 UTC zeitweise

Wind 15 kt aus 80° in Böen 25 kt


Zwischen 09:00 UTC und 17:00 UTC

Wind 13 kt aus 80°

Sichtweite 10 km oder mehr

aufgelockert bewölkt in 3000 ft


Zwischen 17:00 und 19:00 UTC übergehend zu

Wind 6 kt aus 70°

Sichtweite 10 km oder mehr

aufgelockert bewölkt in 3000 ft

TAF EDDH 232300Z 2400/2506 06006KT 9999 BKN020 PROB30 TEMPO 2404/2408 4500 -SN BKN012 FM240900 08013KT 9999 SCT030 TEMPO 2409/2416 08015G25KT BECMG 2417/2419 07006KT
Impressum